createdAt,value
2017-09-03T00:00:48.785Z,13.50
2017-09-03T00:03:16.281Z,14.37
2017-09-03T00:05:43.682Z,10.83
2017-09-03T00:08:10.969Z,15.60
2017-09-03T00:10:38.343Z,18.07
2017-09-03T00:13:05.703Z,12.00
2017-09-03T00:15:32.981Z,12.07
2017-09-03T00:18:00.301Z,10.67
2017-09-03T00:20:27.623Z,14.70
2017-09-03T00:22:54.911Z,14.77
2017-09-03T00:25:22.234Z,13.07
2017-09-03T00:27:49.547Z,13.30
2017-09-03T00:30:16.831Z,11.50
2017-09-03T00:32:44.131Z,12.97
2017-09-03T00:35:11.448Z,11.57
2017-09-03T00:37:38.731Z,10.90
2017-09-03T00:40:06.012Z,10.43
2017-09-03T00:42:33.323Z,11.37
2017-09-03T00:45:00.639Z,12.33
2017-09-03T00:47:27.935Z,11.37
2017-09-03T00:49:55.471Z,11.73
2017-09-03T00:52:22.751Z,15.50
2017-09-03T00:54:50.048Z,11.80
2017-09-03T00:57:17.386Z,10.93
2017-09-03T00:59:44.658Z,11.50
2017-09-03T01:02:11.955Z,12.57
2017-09-03T01:04:39.263Z,16.27
2017-09-03T01:07:06.575Z,11.57
2017-09-03T01:09:33.863Z,9.83
2017-09-03T01:12:01.255Z,15.93
2017-09-03T01:14:28.556Z,13.93
2017-09-03T01:16:55.819Z,14.93
2017-09-03T01:19:23.122Z,18.07
2017-09-03T01:21:50.414Z,15.20
2017-09-03T01:24:17.686Z,19.00
2017-09-03T01:26:45.013Z,16.67
2017-09-03T01:29:12.319Z,16.17
2017-09-03T01:31:39.611Z,13.50
2017-09-03T01:34:06.947Z,15.77
2017-09-03T01:36:34.278Z,16.43
2017-09-03T01:39:01.587Z,12.27
2017-09-03T01:41:28.884Z,17.00
2017-09-03T01:43:56.199Z,12.33
2017-09-03T01:46:23.537Z,16.13
2017-09-03T01:48:50.868Z,13.87
2017-09-03T01:51:18.145Z,12.50
2017-09-03T01:53:45.447Z,18.83
2017-09-03T01:56:12.756Z,15.70
2017-09-03T01:58:40.077Z,15.07
2017-09-03T02:01:07.381Z,14.60
2017-09-03T02:03:34.703Z,15.33
2017-09-03T02:06:01.979Z,13.50
2017-09-03T02:08:29.323Z,15.30
2017-09-03T02:10:56.593Z,14.10
2017-09-03T02:13:23.904Z,14.00
2017-09-03T02:15:51.219Z,17.30
2017-09-03T02:18:18.544Z,13.10
2017-09-03T02:20:45.822Z,12.83
2017-09-03T02:23:13.152Z,12.17
2017-09-03T02:25:40.414Z,15.20
2017-09-03T02:28:07.720Z,15.57
2017-09-03T02:30:35.032Z,17.50
2017-09-03T02:33:02.299Z,14.80
2017-09-03T02:35:29.616Z,12.90
2017-09-03T02:37:56.905Z,14.00
2017-09-03T02:40:24.223Z,15.13
2017-09-03T02:42:51.531Z,14.43
2017-09-03T02:45:18.886Z,12.93
2017-09-03T02:47:46.161Z,17.10
2017-09-03T02:50:13.439Z,14.87
2017-09-03T02:52:40.770Z,16.43
2017-09-03T02:55:08.063Z,13.67
2017-09-03T02:57:35.428Z,13.80
2017-09-03T03:00:02.709Z,18.70
2017-09-03T03:02:30.008Z,12.87
2017-09-03T03:04:57.325Z,14.37
2017-09-03T03:07:24.628Z,12.60
2017-09-03T03:09:51.941Z,13.80
2017-09-03T03:12:19.247Z,17.10
2017-09-03T03:14:46.567Z,16.93
2017-09-03T03:17:13.886Z,12.97
2017-09-03T03:19:41.174Z,13.40
2017-09-03T03:22:08.484Z,15.17
2017-09-03T03:24:35.812Z,15.10
2017-09-03T03:27:03.128Z,13.80
2017-09-03T03:29:30.435Z,13.60
2017-09-03T03:31:57.723Z,20.50
2017-09-03T03:34:25.062Z,14.17
2017-09-03T03:36:52.366Z,17.77
2017-09-03T03:39:19.666Z,14.97
2017-09-03T03:41:46.966Z,14.40
2017-09-03T03:44:14.260Z,18.67
2017-09-03T03:46:41.576Z,13.37
2017-09-03T03:49:08.896Z,15.20
2017-09-03T03:51:36.199Z,13.13
2017-09-03T03:54:03.524Z,17.03
2017-09-03T03:56:30.804Z,16.37
2017-09-03T03:58:58.132Z,14.23
2017-09-03T04:01:26.019Z,13.60
2017-09-03T04:03:53.324Z,13.87
2017-09-03T04:06:20.597Z,14.97
2017-09-03T04:08:47.914Z,13.60
2017-09-03T04:11:15.459Z,15.40
2017-09-03T04:13:42.738Z,13.17
2017-09-03T04:16:10.081Z,18.33
2017-09-03T04:18:37.381Z,14.37
2017-09-03T04:21:04.683Z,14.57
2017-09-03T04:23:31.985Z,14.67
2017-09-03T04:25:59.277Z,12.23
2017-09-03T04:28:26.586Z,14.90
2017-09-03T04:30:53.881Z,16.53
2017-09-03T04:33:21.172Z,19.40
2017-09-03T04:35:48.447Z,13.13
2017-09-03T04:38:15.764Z,14.83
2017-09-03T04:40:43.056Z,14.80
2017-09-03T04:43:10.360Z,15.20
2017-09-03T04:45:37.663Z,15.97
2017-09-03T04:48:04.964Z,22.80
2017-09-03T04:50:32.294Z,30.60
2017-09-03T04:53:02.103Z,20.53
2017-09-03T04:55:29.451Z,22.43
2017-09-03T04:57:56.767Z,21.00
2017-09-03T05:00:24.042Z,17.50
2017-09-03T05:02:51.360Z,18.20
2017-09-03T05:05:18.652Z,17.53
2017-09-03T05:07:45.973Z,16.47
2017-09-03T05:10:13.281Z,16.50
2017-09-03T05:12:40.556Z,22.50
2017-09-03T05:15:07.855Z,18.50
2017-09-03T05:17:35.129Z,21.23
2017-09-03T05:20:02.431Z,23.13
2017-09-03T05:22:29.762Z,22.77
2017-09-03T05:24:57.062Z,17.97
2017-09-03T05:27:24.363Z,20.00
2017-09-03T05:29:51.671Z,19.43
2017-09-03T05:32:20.940Z,18.73
2017-09-03T05:34:48.196Z,22.30
2017-09-03T05:37:15.577Z,20.27
2017-09-03T05:39:42.852Z,27.60
2017-09-03T05:42:10.127Z,23.43
2017-09-03T05:44:37.455Z,24.33
2017-09-03T05:47:04.739Z,28.10
2017-09-03T05:49:32.043Z,25.00
2017-09-03T05:51:59.359Z,30.70
2017-09-03T05:54:26.632Z,23.70
2017-09-03T05:56:53.908Z,18.83
2017-09-03T05:59:21.216Z,20.37
2017-09-03T06:01:48.492Z,33.90
2017-09-03T06:04:15.798Z,22.10
2017-09-03T06:06:43.076Z,21.20
2017-09-03T06:09:10.341Z,18.93
2017-09-03T06:11:37.652Z,18.50
2017-09-03T06:14:04.959Z,19.40
2017-09-03T06:16:32.233Z,18.33
2017-09-03T06:18:59.499Z,16.67
2017-09-03T06:21:26.798Z,17.60
2017-09-03T06:23:54.104Z,18.37
2017-09-03T06:26:21.380Z,16.93
2017-09-03T06:28:48.675Z,20.73
2017-09-03T06:31:15.973Z,15.83
2017-09-03T06:33:43.283Z,18.03
2017-09-03T06:36:10.565Z,15.77
2017-09-03T06:38:37.837Z,17.20
2017-09-03T06:41:05.147Z,17.60
2017-09-03T06:43:32.426Z,15.10
2017-09-03T06:45:59.698Z,14.77
2017-09-03T06:48:26.992Z,15.13
2017-09-03T06:50:54.298Z,15.40
2017-09-03T06:53:21.567Z,13.67
2017-09-03T06:55:48.902Z,13.60
2017-09-03T06:58:16.146Z,13.10
2017-09-03T07:00:43.418Z,11.63
2017-09-03T07:03:10.723Z,16.73
2017-09-03T07:05:38.031Z,11.90
2017-09-03T07:08:05.324Z,15.87
2017-09-03T07:10:32.816Z,13.40
2017-09-03T07:13:00.087Z,13.90
2017-09-03T07:15:27.394Z,16.40
2017-09-03T07:17:54.708Z,11.20
2017-09-03T07:20:21.974Z,15.47
2017-09-03T07:22:49.373Z,16.67
2017-09-03T07:25:16.692Z,13.00
2017-09-03T07:27:43.981Z,12.17
2017-09-03T07:30:11.276Z,17.53
2017-09-03T07:32:38.547Z,12.90
2017-09-03T07:35:05.853Z,13.57
2017-09-03T07:37:33.127Z,12.40
2017-09-03T07:40:00.397Z,10.97
2017-09-03T07:42:27.714Z,12.00
2017-09-03T07:44:54.990Z,13.33
2017-09-03T07:47:22.633Z,14.00
2017-09-03T07:49:49.994Z,12.47
2017-09-03T07:52:17.315Z,11.90
2017-09-03T07:54:44.592Z,12.67
2017-09-03T07:57:11.872Z,13.97
2017-09-03T07:59:39.180Z,15.13
2017-09-03T08:02:06.453Z,14.40
2017-09-03T08:04:33.760Z,14.60
2017-09-03T08:07:01.046Z,15.40
2017-09-03T08:09:28.362Z,13.97
2017-09-03T08:11:55.658Z,16.73
2017-09-03T08:14:22.918Z,14.30
2017-09-03T08:16:50.241Z,14.30
2017-09-03T08:19:17.535Z,15.60
2017-09-03T08:21:44.839Z,15.60
2017-09-03T08:24:12.115Z,15.00
2017-09-03T08:26:39.429Z,15.47
2017-09-03T08:29:06.735Z,15.20
2017-09-03T08:31:34.055Z,14.87
2017-09-03T08:36:35.227Z,18.80
2017-09-03T08:39:02.526Z,16.20
2017-09-03T08:41:29.835Z,19.77
2017-09-03T08:43:57.113Z,16.90
2017-09-03T08:46:24.406Z,16.47
2017-09-03T08:48:51.699Z,15.03
2017-09-03T08:51:19.020Z,16.50
2017-09-03T08:53:46.305Z,14.17
2017-09-03T08:56:13.634Z,14.27
2017-09-03T08:58:40.907Z,14.23
2017-09-03T09:01:08.238Z,13.90
2017-09-03T09:03:35.552Z,15.27
2017-09-03T09:06:02.847Z,15.50
2017-09-03T09:08:30.151Z,15.00
2017-09-03T09:10:57.468Z,13.33
2017-09-03T09:13:24.740Z,14.10
2017-09-03T09:15:52.047Z,13.40
2017-09-03T09:18:19.337Z,14.87
2017-09-03T09:20:46.687Z,16.30
2017-09-03T09:23:13.976Z,16.07
2017-09-03T09:25:41.275Z,15.87
2017-09-03T09:28:08.611Z,17.57
2017-09-03T09:30:36.030Z,15.80
2017-09-03T09:33:03.347Z,16.20
2017-09-03T09:35:30.739Z,17.63
2017-09-03T09:37:58.058Z,16.27
2017-09-03T09:40:25.339Z,14.40
2017-09-03T09:42:52.884Z,14.10
2017-09-03T09:45:20.199Z,14.13
2017-09-03T09:47:47.513Z,16.33
2017-09-03T09:50:14.782Z,16.53
2017-09-03T09:52:42.078Z,15.10
2017-09-03T09:55:09.394Z,15.40
2017-09-03T09:57:36.679Z,16.30
2017-09-03T10:00:03.987Z,14.90
2017-09-03T10:02:31.993Z,13.00
2017-09-03T10:04:59.378Z,13.60
2017-09-03T10:07:26.654Z,13.57
2017-09-03T10:09:53.971Z,12.60
2017-09-03T10:12:21.284Z,13.07
2017-09-03T10:14:48.683Z,12.60
2017-09-03T10:17:16.006Z,10.87
2017-09-03T10:19:43.322Z,11.70
2017-09-03T10:22:10.591Z,12.87
2017-09-03T10:24:37.999Z,12.60
2017-09-03T10:27:05.323Z,12.30
2017-09-03T10:29:32.595Z,11.00
2017-09-03T10:31:59.885Z,9.67
2017-09-03T10:34:27.182Z,8.87
2017-09-03T10:36:54.520Z,8.33
2017-09-03T10:39:21.783Z,8.30
2017-09-03T10:41:49.103Z,7.00
2017-09-03T10:44:17.171Z,6.63
2017-09-03T10:46:44.570Z,6.40
2017-09-03T10:49:11.879Z,5.50
2017-09-03T10:51:39.260Z,6.23
2017-09-03T10:54:06.532Z,5.83
2017-09-03T10:56:33.828Z,7.33
2017-09-03T10:59:01.440Z,6.60
2017-09-03T11:01:28.770Z,6.87
2017-09-03T11:03:56.059Z,6.53
2017-09-03T11:06:23.335Z,6.47
2017-09-03T11:08:50.739Z,6.50
2017-09-03T11:11:18.273Z,6.33
2017-09-03T11:13:45.613Z,5.63
2017-09-03T11:16:12.914Z,6.03
2017-09-03T11:18:40.208Z,5.90
2017-09-03T11:21:07.511Z,4.73
2017-09-03T11:23:34.782Z,5.43
2017-09-03T11:26:02.042Z,5.57
2017-09-03T11:28:29.346Z,4.50
2017-09-03T11:30:56.603Z,5.30
2017-09-03T11:33:23.891Z,4.80
2017-09-03T11:35:51.171Z,4.20
2017-09-03T11:38:18.461Z,5.23
2017-09-03T11:40:45.735Z,4.60
2017-09-03T11:43:13.009Z,4.83
2017-09-03T11:45:40.313Z,4.73
2017-09-03T11:48:07.616Z,4.33
2017-09-03T11:50:34.922Z,4.50
2017-09-03T11:53:02.190Z,4.70
2017-09-03T11:55:29.482Z,4.90
2017-09-03T11:57:56.755Z,5.83
2017-09-03T12:00:24.058Z,7.10
2017-09-03T12:02:51.616Z,7.40
2017-09-03T12:05:18.888Z,7.33
2017-09-03T12:07:46.187Z,6.70
2017-09-03T12:10:13.455Z,5.60
2017-09-03T12:12:40.723Z,5.60
2017-09-03T12:15:08.022Z,3.50
2017-09-03T12:17:35.289Z,3.00
2017-09-03T12:20:02.587Z,2.57
2017-09-03T12:22:29.863Z,2.80
2017-09-03T12:24:57.133Z,3.90
2017-09-03T12:27:24.431Z,4.53
2017-09-03T12:29:51.734Z,3.70
2017-09-03T12:32:19.002Z,3.87
2017-09-03T12:34:46.267Z,3.40
2017-09-03T12:37:13.559Z,3.63
2017-09-03T12:39:40.857Z,3.90
2017-09-03T12:42:08.119Z,2.87
2017-09-03T12:44:36.289Z,2.93
2017-09-03T12:47:03.543Z,3.07
2017-09-03T12:49:30.804Z,3.73
2017-09-03T12:51:58.084Z,3.50
2017-09-03T12:54:25.357Z,3.27
2017-09-03T12:56:52.688Z,3.00
2017-09-03T12:59:19.951Z,3.13
2017-09-03T13:01:47.211Z,2.80
2017-09-03T13:04:14.505Z,3.07
2017-09-03T13:06:41.776Z,2.40
2017-09-03T13:09:09.079Z,2.83
2017-09-03T13:11:36.339Z,3.40
2017-09-03T13:14:03.624Z,3.50
2017-09-03T13:16:30.911Z,3.70
2017-09-03T13:18:58.166Z,4.53
2017-09-03T13:21:25.455Z,4.90
2017-09-03T13:23:52.724Z,4.80
2017-09-03T13:26:19.983Z,5.83
2017-09-03T13:28:47.277Z,6.50
2017-09-03T13:31:14.566Z,5.40
2017-09-03T13:33:41.824Z,5.57
2017-09-03T13:36:09.112Z,5.10
2017-09-03T13:38:36.371Z,6.30
2017-09-03T13:41:03.659Z,6.33
2017-09-03T13:43:30.920Z,5.97
2017-09-03T13:45:58.256Z,5.70
2017-09-03T13:48:25.531Z,7.30
2017-09-03T13:50:52.787Z,7.40
2017-09-03T13:53:20.078Z,7.30
2017-09-03T13:55:47.348Z,7.50
2017-09-03T13:58:14.660Z,6.00
2017-09-03T14:00:41.955Z,8.20
2017-09-03T14:03:09.235Z,7.70
2017-09-03T14:05:36.525Z,7.10
2017-09-03T14:08:03.827Z,7.80
2017-09-03T14:10:31.125Z,6.03
2017-09-03T14:12:58.391Z,6.63
2017-09-03T14:15:25.647Z,6.10
2017-09-03T14:17:52.926Z,7.10
2017-09-03T14:20:20.188Z,7.03
2017-09-03T14:22:47.485Z,7.70
2017-09-03T14:25:14.744Z,6.77
2017-09-03T14:27:42.005Z,7.20
2017-09-03T14:30:09.315Z,6.30
2017-09-03T14:32:36.574Z,5.60
2017-09-03T14:35:03.846Z,6.00
2017-09-03T14:37:31.122Z,6.27
2017-09-03T14:39:58.394Z,6.00
2017-09-03T14:42:25.844Z,6.53
2017-09-03T14:44:53.102Z,6.57
2017-09-03T14:47:20.373Z,6.73
2017-09-03T14:49:47.660Z,6.97
2017-09-03T14:52:14.919Z,6.70
2017-09-03T14:54:42.178Z,6.67
2017-09-03T14:57:09.485Z,7.60
2017-09-03T14:59:36.739Z,7.67
2017-09-03T15:02:04.051Z,7.10
2017-09-03T15:04:31.357Z,7.30
2017-09-03T15:06:58.619Z,6.67
2017-09-03T15:09:25.950Z,6.40
2017-09-03T15:11:53.212Z,6.53
2017-09-03T15:14:20.499Z,6.40
2017-09-03T15:16:47.791Z,6.20
2017-09-03T15:19:15.093Z,6.50
2017-09-03T15:21:42.496Z,5.50
2017-09-03T15:24:09.787Z,6.20
2017-09-03T15:26:37.049Z,6.37
2017-09-03T15:29:04.487Z,5.87
2017-09-03T15:31:31.731Z,5.80
2017-09-03T15:33:59.015Z,5.40
2017-09-03T15:36:26.287Z,6.23
2017-09-03T15:38:53.592Z,5.60
2017-09-03T15:41:20.846Z,5.33
2017-09-03T15:43:48.115Z,5.60
2017-09-03T15:46:15.399Z,5.30
2017-09-03T15:48:42.671Z,5.10
2017-09-03T15:51:09.956Z,5.70
2017-09-03T15:53:37.244Z,5.00
2017-09-03T15:56:04.523Z,5.00
2017-09-03T15:58:31.836Z,4.80
2017-09-03T16:00:59.092Z,4.60
2017-09-03T16:03:26.392Z,4.10
2017-09-03T16:05:53.647Z,4.37
2017-09-03T16:08:20.947Z,3.97
2017-09-03T16:10:48.238Z,4.80
2017-09-03T16:13:15.503Z,3.97
2017-09-03T16:15:42.831Z,4.10
2017-09-03T16:18:10.140Z,4.47
2017-09-03T16:20:37.735Z,4.73
2017-09-03T16:23:05.000Z,3.83
2017-09-03T16:25:32.295Z,4.00
2017-09-03T16:27:59.566Z,4.40
2017-09-03T16:30:26.868Z,3.80
2017-09-03T16:32:54.130Z,4.03
2017-09-03T16:35:21.399Z,3.70
2017-09-03T16:37:48.679Z,3.33
2017-09-03T16:40:15.975Z,3.60
2017-09-03T16:42:43.235Z,4.10
2017-09-03T16:45:10.498Z,3.80
2017-09-03T16:47:37.836Z,3.43
2017-09-03T16:50:05.102Z,3.50
2017-09-03T16:52:32.416Z,4.40
2017-09-03T16:54:59.673Z,4.23
2017-09-03T16:57:26.942Z,3.90
2017-09-03T16:59:54.253Z,4.30
2017-09-03T17:02:21.512Z,4.37
2017-09-03T17:04:48.780Z,4.73
2017-09-03T17:07:16.061Z,3.60
2017-09-03T17:09:43.318Z,4.23
2017-09-03T17:12:10.612Z,3.93
2017-09-03T17:14:37.898Z,4.63
2017-09-03T17:17:05.162Z,4.53
2017-09-03T17:19:32.458Z,4.20
2017-09-03T17:22:00.368Z,4.30
2017-09-03T17:24:27.629Z,4.77
2017-09-03T17:26:54.934Z,3.90
2017-09-03T17:29:22.209Z,4.20
2017-09-03T17:31:52.099Z,4.50
2017-09-03T17:34:19.391Z,4.40
2017-09-03T17:37:01.567Z,3.93
2017-09-03T17:39:28.851Z,4.10
2017-09-03T17:42:11.736Z,4.43
2017-09-03T17:44:39.039Z,4.10
2017-09-03T17:47:06.316Z,4.40
2017-09-03T17:49:33.577Z,4.40
2017-09-03T17:52:00.891Z,4.97
2017-09-03T17:54:28.148Z,4.30
2017-09-03T17:56:55.415Z,4.30
2017-09-03T17:59:22.703Z,5.10
2017-09-03T18:01:50.012Z,4.00
2017-09-03T18:04:17.274Z,4.90
2017-09-03T18:06:53.340Z,5.70
2017-09-03T18:09:20.611Z,5.27
2017-09-03T18:11:47.872Z,4.77
2017-09-03T18:14:16.492Z,5.20
2017-09-03T18:16:50.347Z,4.73
2017-09-03T18:19:18.758Z,4.70
2017-09-03T18:21:46.062Z,4.90
2017-09-03T18:24:13.327Z,4.50
2017-09-03T18:26:40.623Z,4.40
2017-09-03T18:29:23.546Z,4.83
2017-09-03T18:31:52.463Z,5.20
2017-09-03T18:34:19.752Z,4.23
2017-09-03T18:36:47.581Z,5.40
2017-09-03T18:39:14.895Z,5.00
2017-09-03T18:41:42.168Z,5.27
2017-09-03T18:44:13.413Z,5.47
2017-09-03T18:46:41.204Z,4.50
2017-09-03T18:49:08.459Z,4.80
2017-09-03T18:51:36.715Z,4.47
2017-09-03T18:54:04.803Z,5.20
2017-09-03T18:56:32.095Z,5.90
2017-09-03T18:59:20.201Z,5.80
2017-09-03T19:01:48.284Z,5.80
2017-09-03T19:04:15.564Z,4.90
2017-09-03T19:06:42.828Z,5.30
2017-09-03T19:09:10.131Z,5.00
2017-09-03T19:11:37.406Z,6.63
2017-09-03T19:14:04.699Z,6.60
2017-09-03T19:16:32.008Z,7.17
2017-09-03T19:18:59.268Z,5.50
2017-09-03T19:21:26.550Z,7.27
2017-09-03T19:23:53.839Z,7.90
2017-09-03T19:26:21.113Z,7.57
2017-09-03T19:28:48.409Z,7.53
2017-09-03T19:31:15.668Z,7.30
2017-09-03T19:33:42.976Z,6.70
2017-09-03T19:36:10.243Z,8.70
2017-09-03T19:38:37.530Z,7.80
2017-09-03T19:41:04.832Z,8.03
2017-09-03T19:43:32.128Z,7.83
2017-09-03T19:45:59.387Z,7.90
2017-09-03T19:48:26.690Z,7.50
2017-09-03T19:50:53.952Z,7.53
2017-09-03T19:53:21.219Z,8.33
2017-09-03T19:55:48.511Z,8.50
2017-09-03T19:58:15.780Z,7.60
2017-09-03T20:00:43.055Z,8.47
2017-09-03T20:03:10.363Z,8.97
2017-09-03T20:05:37.672Z,8.40
2017-09-03T20:08:04.943Z,9.40
2017-09-03T20:10:32.207Z,9.57
2017-09-03T20:12:59.515Z,9.70
2017-09-03T20:15:26.792Z,8.80
2017-09-03T20:17:54.092Z,7.73
2017-09-03T20:20:21.364Z,8.80
2017-09-03T20:22:48.631Z,8.83
2017-09-03T20:25:15.959Z,8.40
2017-09-03T20:27:43.250Z,8.97
2017-09-03T20:30:10.607Z,9.17
2017-09-03T20:32:37.902Z,9.33
2017-09-03T20:35:05.187Z,8.70
2017-09-03T20:37:32.491Z,8.50
2017-09-03T20:39:59.795Z,8.17
2017-09-03T20:42:27.059Z,8.33
2017-09-03T20:44:54.331Z,9.57
2017-09-03T20:47:21.626Z,7.90
2017-09-03T20:49:48.896Z,8.40
2017-09-03T20:52:16.154Z,8.53
2017-09-03T20:54:43.459Z,7.63
2017-09-03T20:57:10.728Z,8.47
2017-09-03T20:59:37.996Z,7.40
2017-09-03T21:02:05.295Z,7.70
2017-09-03T21:04:32.562Z,8.53
2017-09-03T21:06:59.866Z,7.57
2017-09-03T21:09:27.131Z,8.73
2017-09-03T21:11:54.615Z,8.53
2017-09-03T21:14:21.886Z,9.20
2017-09-03T21:16:49.165Z,7.70
2017-09-03T21:19:16.476Z,7.57
2017-09-03T21:21:43.742Z,8.83
2017-09-03T21:24:11.023Z,8.00
2017-09-03T21:26:38.348Z,7.20
2017-09-03T21:29:05.637Z,7.90
2017-09-03T21:31:32.946Z,8.37
2017-09-03T21:34:00.236Z,7.50
2017-09-03T21:36:27.546Z,8.30
2017-09-03T21:38:54.828Z,8.97
2017-09-03T21:41:22.199Z,8.57
2017-09-03T21:43:49.468Z,8.57
2017-09-03T21:46:16.781Z,8.90
2017-09-03T21:48:44.104Z,8.10
2017-09-03T21:51:11.387Z,10.37
2017-09-03T21:53:38.721Z,8.13
2017-09-03T21:56:06.011Z,8.77
2017-09-03T21:58:33.335Z,9.67
2017-09-03T22:01:00.611Z,8.40
2017-09-03T22:03:27.899Z,9.83
2017-09-03T22:05:55.222Z,9.70
2017-09-03T22:08:22.516Z,9.87
2017-09-03T22:10:49.811Z,8.80
2017-09-03T22:13:17.107Z,8.20
2017-09-03T22:15:44.488Z,8.80
2017-09-03T22:18:11.793Z,8.33
2017-09-03T22:20:39.060Z,8.50
2017-09-03T22:23:06.374Z,9.20
2017-09-03T22:25:33.656Z,9.40
2017-09-03T22:28:00.926Z,8.27
2017-09-03T22:30:28.438Z,8.50
2017-09-03T22:32:55.726Z,9.83
2017-09-03T22:35:23.002Z,8.23
2017-09-03T22:37:50.319Z,8.73
2017-09-03T22:40:17.587Z,7.37
2017-09-03T22:42:44.920Z,9.33
2017-09-03T22:45:12.182Z,8.33
2017-09-03T22:47:39.466Z,9.57
2017-09-03T22:50:06.767Z,10.07
2017-09-03T22:52:34.031Z,8.60
2017-09-03T22:55:01.346Z,9.03
2017-09-03T22:57:28.609Z,9.03
2017-09-03T22:59:56.267Z,8.93
2017-09-03T23:02:23.537Z,9.20
2017-09-03T23:04:50.802Z,9.77
2017-09-03T23:07:18.095Z,10.10
2017-09-03T23:09:45.384Z,10.50
2017-09-03T23:12:12.683Z,10.20
2017-09-03T23:14:39.951Z,11.47
2017-09-03T23:17:07.223Z,11.23
2017-09-03T23:19:34.544Z,12.83
2017-09-03T23:22:01.834Z,11.00
2017-09-03T23:24:29.116Z,10.70
2017-09-03T23:26:56.425Z,11.80
2017-09-03T23:29:23.716Z,10.90
2017-09-03T23:31:51.039Z,10.63
2017-09-03T23:34:18.327Z,12.47
2017-09-03T23:36:45.625Z,11.90
2017-09-03T23:39:12.943Z,13.13
2017-09-03T23:41:40.221Z,12.40
2017-09-03T23:44:07.550Z,11.23
2017-09-03T23:46:34.821Z,10.30
2017-09-03T23:49:02.095Z,12.73
2017-09-03T23:51:29.418Z,12.20
2017-09-03T23:53:56.740Z,11.73
2017-09-03T23:56:24.019Z,16.60
2017-09-03T23:58:51.309Z,13.03
